Accueil
METAR-TAF:

METAR-TAF

Aéroports :

Montichiari

Brescia, Italie

latitude: 45-24-02N, longitude: 010-18-59E, altitude: 104 m

Observation

Le bulletin a été fait il y a 1 heure et 20 minutes, à 09:50 UTC
Vent 6 kt de sud-est, variant entre est et sud/sud-est
Température 11°C
Humidité 32%
Pression 1016 hPa
Visibilité 10 km ou plus
pas de nuages en-dessous de 1500 mètres et pas de cumulonimbus.

METAR: LIPO 290950Z 13006KT 080V160 CAVOK 11/M05 Q1016

Heure: 12:10 (11:10 UTC)

Prévision

Le bulletin a été fait il y a 6 heures et 10 minutes, à 05:00 UTC
Prévision valable du 29 à 06 UTC au 01 à 06 UTC
Vent 5 kt de direction variable
Visibilité 10 km ou plus
Nuages épars à une hauteur de 8000 ft
Evoluant progressivement
du 29 à 15 UTC au 29 à 17 UTC
pluie

TAF: LIPO 290500Z 2906/0106 VRB05KT 9999 SCT080 BECMG 2915/2917 RA

Observations et prévisions météorologiques de plus de 4000 aéroports (messages METAR et TAF).

Les stations disponibles sont représentées par des disques jaunes et rouges sur la carte.

Passer la souris dessus pour voir le nom de la station.

Cliquer dessus pour voir les observations et prévisions météorologiques.

Pour changer de carte: cliquez sur les boutons verts avec une croix noire pour zoomer, sur le bouton vert avec un tiret pour effectuer un zoom arrière, ou sur les flèches vertes pour les cartes adjacentes.


METAR-TAF: